Time;durP1;ratioP1;P1;durP2;ratioP2;P2;SDS_P1;SDS_P2;PMS_P1;PMS_P2;Temp;Humidity;BMP_temperature;BMP_pressure;BME280_temperature;BME280_humidity;BME280_pressure;Samples;Min_cycle;Max_cycle;Signal;HPM_P1;HPM_P2
2022/01/24 00:01:53;;;;;;;17.90;9.43;;;;;;;;;;4954509;28;20115;-67
2022/01/24 00:04:18;;;;;;;17.45;9.57;;;;;;;;;;4950012;28;20400;-68
2022/01/24 00:06:43;;;;;;;17.38;7.88;;;;;;;;;;4953588;28;20023;-68
2022/01/24 00:09:11;;;;;;;16.75;8.63;;;;;;;;;;4957666;28;20356;-67
2022/01/24 00:17:18;;;;;;;15.57;7.82;;;;;;;;;;4954592;28;20041;-68
2022/01/24 00:27:55;;;;;;;13.55;6.53;;;;;;;;;;4952913;29;20038;-67
2022/01/24 00:30:20;;;;;;;15.00;6.75;;;;;;;;;;4953780;28;20022;-66
2022/01/24 00:32:46;;;;;;;16.88;7.90;;;;;;;;;;4954342;29;20031;-67
2022/01/24 00:35:11;;;;;;;17.80;7.63;;;;;;;;;;4961773;28;20031;-67
2022/01/24 00:37:36;;;;;;;17.45;7.07;;;;;;;;;;4959467;28;20027;-68
2022/01/24 00:40:02;;;;;;;15.52;7.13;;;;;;;;;;4952867;28;20467;-68
2022/01/24 00:43:18;;;;;;;13.63;6.63;;;;;;;;;;4971756;28;20065;-68
2022/01/24 00:45:28;;;;;;;16.23;6.85;;;;;;;;;;4968832;28;20122;-68
2022/01/24 00:53:15;;;;;;;19.75;8.15;;;;;;;;;;4946307;28;20038;-67
2022/01/24 00:55:41;;;;;;;14.18;6.90;;;;;;;;;;4954473;28;20031;-68
2022/01/24 00:58:06;;;;;;;16.60;7.38;;;;;;;;;;4953828;29;20089;-68
2022/01/24 01:00:31;;;;;;;13.30;6.38;;;;;;;;;;4952538;29;20026;-67
2022/01/24 01:02:56;;;;;;;15.98;7.15;;;;;;;;;;4957461;28;20094;-68
2022/01/24 01:05:54;;;;;;;12.30;6.25;;;;;;;;;;4953411;28;20126;-68
2022/01/24 01:18:57;;;;;;;10.65;5.43;;;;;;;;;;4934113;29;20601;-68
2022/01/24 01:21:22;;;;;;;11.88;5.55;;;;;;;;;;4947379;29;20118;-68
2022/01/24 01:23:52;;;;;;;13.27;5.97;;;;;;;;;;4964178;28;20027;-68
2022/01/24 01:26:25;;;;;;;12.48;6.55;;;;;;;;;;4952678;29;20047;-68
2022/01/24 01:28:55;;;;;;;12.82;6.30;;;;;;;;;;4953267;28;20027;-68
2022/01/24 01:31:39;;;;;;;18.15;7.32;;;;;;;;;;4954094;28;20110;-68
2022/01/24 01:55:39;;;;;;;19.83;7.28;;;;;;;;;;4967542;28;20081;-68
2022/01/24 01:58:15;;;;;;;11.40;5.97;;;;;;;;;;4957942;28;20031;-68
2022/01/24 02:00:43;;;;;;;14.43;7.03;;;;;;;;;;4957105;29;20134;-68
2022/01/24 02:03:08;;;;;;;12.10;5.88;;;;;;;;;;4956864;28;20023;-68
2022/01/24 02:05:34;;;;;;;13.45;5.50;;;;;;;;;;4964347;28;20027;-68
2022/01/24 02:08:00;;;;;;;13.15;5.75;;;;;;;;;;4977962;28;20476;-68
2022/01/24 02:10:25;;;;;;;13.38;5.95;;;;;;;;;;4958593;28;20078;-67
2022/01/24 02:12:52;;;;;;;13.15;6.70;;;;;;;;;;4956801;29;20031;-68
2022/01/24 02:15:26;;;;;;;17.88;7.22;;;;;;;;;;4956436;28;20114;-67
2022/01/24 02:23:18;;;;;;;16.33;7.13;;;;;;;;;;4948385;29;20094;-68
2022/01/24 02:25:43;;;;;;;14.38;6.65;;;;;;;;;;4955559;28;20051;-67
2022/01/24 02:28:11;;;;;;;15.85;7.35;;;;;;;;;;4968966;28;20027;-67
2022/01/24 02:33:09;;;;;;;16.38;6.50;;;;;;;;;;4943123;29;20050;-66
2022/01/24 02:35:35;;;;;;;14.60;7.03;;;;;;;;;;4952722;28;20166;-67
2022/01/24 02:38:04;;;;;;;14.98;6.45;;;;;;;;;;4950946;28;20042;-67
2022/01/24 02:40:29;;;;;;;17.13;7.05;;;;;;;;;;4942956;28;20039;-67
2022/01/24 02:48:25;;;;;;;13.40;5.95;;;;;;;;;;4951077;28;20042;-68
2022/01/24 02:53:34;;;;;;;14.10;6.95;;;;;;;;;;4951442;29;20062;-67
2022/01/24 02:55:59;;;;;;;13.77;6.00;;;;;;;;;;4955745;28;20061;-68
2022/01/24 02:58:24;;;;;;;14.00;6.22;;;;;;;;;;4955628;28;20476;-67
2022/01/24 03:00:50;;;;;;;17.40;6.65;;;;;;;;;;4969797;28;20535;-67
2022/01/24 03:03:16;;;;;;;15.75;6.53;;;;;;;;;;4973453;28;20027;-68
2022/01/24 03:05:41;;;;;;;14.32;6.82;;;;;;;;;;4974738;28;20053;-67
2022/01/24 03:08:07;;;;;;;15.68;7.18;;;;;;;;;;4966040;28;20038;-68
2022/01/24 03:10:52;;;;;;;15.32;6.63;;;;;;;;;;4954538;28;20066;-68
2022/01/24 03:13:32;;;;;;;17.92;7.28;;;;;;;;;;4948480;28;20437;-68
2022/01/24 03:15:59;;;;;;;12.57;5.65;;;;;;;;;;4954319;28;20040;-67
2022/01/24 03:18:24;;;;;;;16.92;7.05;;;;;;;;;;4954932;28;20568;-68
2022/01/24 03:20:50;;;;;;;13.57;6.05;;;;;;;;;;4948405;28;20122;-68
2022/01/24 03:23:16;;;;;;;14.57;6.57;;;;;;;;;;4956143;28;20436;-68
2022/01/24 03:25:42;;;;;;;15.93;6.80;;;;;;;;;;4955152;28;20134;-68
2022/01/24 03:28:07;;;;;;;13.43;6.60;;;;;;;;;;4954953;29;20117;-67
2022/01/24 03:30:32;;;;;;;14.60;7.30;;;;;;;;;;4962267;28;20403;-68
2022/01/24 03:32:58;;;;;;;12.90;5.93;;;;;;;;;;4955016;29;20416;-68
2022/01/24 03:35:23;;;;;;;23.55;7.53;;;;;;;;;;4955062;28;20035;-68
2022/01/24 03:37:48;;;;;;;21.27;6.70;;;;;;;;;;4943326;28;20052;-67
2022/01/24 03:40:14;;;;;;;16.48;6.30;;;;;;;;;;4952823;28;20255;-68
2022/01/24 03:42:39;;;;;;;24.85;8.13;;;;;;;;;;4955068;28;20039;-67
2022/01/24 03:45:07;;;;;;;20.73;7.75;;;;;;;;;;4956051;28;20133;-67
2022/01/24 03:50:01;;;;;;;24.85;8.75;;;;;;;;;;4950703;28;20074;-68
2022/01/24 03:52:30;;;;;;;25.80;8.80;;;;;;;;;;4952796;28;20089;-68
2022/01/24 03:54:55;;;;;;;24.65;8.07;;;;;;;;;;4959026;28;20022;-67
2022/01/24 03:57:20;;;;;;;25.45;8.00;;;;;;;;;;4954290;28;20043;-67
2022/01/24 03:59:46;;;;;;;20.10;7.90;;;;;;;;;;4953883;28;20031;-67
2022/01/24 04:02:12;;;;;;;23.75;8.05;;;;;;;;;;4954818;28;20394;-67
2022/01/24 04:04:37;;;;;;;20.80;7.35;;;;;;;;;;4955092;28;20018;-67
2022/01/24 04:07:02;;;;;;;28.95;8.98;;;;;;;;;;4961408;28;20027;-67
2022/01/24 04:09:27;;;;;;;34.67;8.85;;;;;;;;;;4954494;28;20043;-67
2022/01/24 04:11:56;;;;;;;27.65;8.73;;;;;;;;;;4955503;28;20035;-67
2022/01/24 04:14:28;;;;;;;32.92;9.52;;;;;;;;;;4953261;29;20074;-67
2022/01/24 04:22:10;;;;;;;50.35;12.18;;;;;;;;;;4954483;28;20800;-68
2022/01/24 04:24:35;;;;;;;40.33;9.95;;;;;;;;;;4953986;28;20075;-68
2022/01/24 04:27:00;;;;;;;45.63;10.93;;;;;;;;;;4955032;28;20483;-67
2022/01/24 04:29:26;;;;;;;42.30;10.07;;;;;;;;;;4953968;28;20381;-67
2022/01/24 04:31:51;;;;;;;103.07;14.60;;;;;;;;;;4954399;29;20031;-67
2022/01/24 04:34:16;;;;;;;124.65;16.30;;;;;;;;;;4953720;28;20027;-67
2022/01/24 04:36:42;;;;;;;108.53;14.82;;;;;;;;;;4954748;28;20115;-67
2022/01/24 04:39:07;;;;;;;119.68;15.73;;;;;;;;;;4952278;28;20043;-68
2022/01/24 04:41:37;;;;;;;149.43;16.67;;;;;;;;;;4954116;29;20031;-66
2022/01/24 04:47:02;;;;;;;60.25;12.18;;;;;;;;;;4955226;28;20042;-67
2022/01/24 04:52:26;;;;;;;56.22;11.77;;;;;;;;;;4952534;29;20086;-67
2022/01/24 04:54:52;;;;;;;54.97;10.85;;;;;;;;;;4953436;28;20023;-68
2022/01/24 04:57:18;;;;;;;30.75;10.35;;;;;;;;;;4954669;28;20027;-66
2022/01/24 04:59:47;;;;;;;28.30;10.25;;;;;;;;;;4953455;28;20495;-66
2022/01/24 05:02:12;;;;;;;32.42;9.18;;;;;;;;;;4950590;28;20469;-66
2022/01/24 05:04:37;;;;;;;26.80;10.43;;;;;;;;;;4954351;28;20082;-68
2022/01/24 05:07:02;;;;;;;26.70;9.45;;;;;;;;;;4953112;28;20046;-67
2022/01/24 05:09:32;;;;;;;22.85;8.90;;;;;;;;;;4960381;28;20043;-66
2022/01/24 05:12:04;;;;;;;21.85;7.90;;;;;;;;;;4961947;28;20035;-67
2022/01/24 05:25:24;;;;;;;21.02;8.25;;;;;;;;;;4956989;28;20070;-68
2022/01/24 05:27:49;;;;;;;25.83;9.55;;;;;;;;;;4956659;28;20134;-67
2022/01/24 05:30:16;;;;;;;30.38;9.77;;;;;;;;;;4968311;28;20094;-68
2022/01/24 05:32:41;;;;;;;32.40;10.20;;;;;;;;;;4967046;28;20035;-68
2022/01/24 05:35:07;;;;;;;30.10;9.75;;;;;;;;;;4957070;29;20051;-68
2022/01/24 05:37:32;;;;;;;31.25;10.15;;;;;;;;;;4953959;28;20046;-68
2022/01/24 05:39:57;;;;;;;39.13;10.68;;;;;;;;;;4955868;28;20392;-66
2022/01/24 05:42:22;;;;;;;33.08;10.68;;;;;;;;;;4957507;28;20061;-68
2022/01/24 05:44:49;;;;;;;29.95;10.07;;;;;;;;;;4955165;28;20105;-67
2022/01/24 05:47:14;;;;;;;35.35;10.48;;;;;;;;;;4957120;28;20030;-69
2022/01/24 05:49:39;;;;;;;31.88;9.68;;;;;;;;;;4953603;28;20042;-66
2022/01/24 05:52:09;;;;;;;43.10;9.65;;;;;;;;;;4955044;28;20026;-67
2022/01/24 05:54:34;;;;;;;37.47;9.57;;;;;;;;;;4956964;28;20023;-67
2022/01/24 05:57:00;;;;;;;37.00;9.20;;;;;;;;;;4954740;28;20031;-67
2022/01/24 05:59:25;;;;;;;29.02;8.35;;;;;;;;;;4945931;29;20031;-68
2022/01/24 06:01:50;;;;;;;21.70;8.48;;;;;;;;;;4954294;28;20035;-66
2022/01/24 06:04:15;;;;;;;21.38;8.30;;;;;;;;;;4954318;28;20027;-67
2022/01/24 06:06:40;;;;;;;25.92;9.07;;;;;;;;;;4953848;28;20032;-66
2022/01/24 06:09:05;;;;;;;27.42;8.70;;;;;;;;;;4956320;29;20038;-67
2022/01/24 06:11:31;;;;;;;28.08;9.32;;;;;;;;;;4957575;28;20163;-67
2022/01/24 06:13:58;;;;;;;24.20;8.57;;;;;;;;;;4957407;28;20352;-68
2022/01/24 06:16:23;;;;;;;25.45;9.30;;;;;;;;;;4954666;28;20027;-67
2022/01/24 06:18:48;;;;;;;26.10;8.70;;;;;;;;;;4954993;28;20015;-69
2022/01/24 06:21:13;;;;;;;42.55;9.40;;;;;;;;;;4950818;28;20481;-67
2022/01/24 06:23:38;;;;;;;26.50;8.85;;;;;;;;;;4957855;28;20011;-68
2022/01/24 06:26:04;;;;;;;29.15;9.13;;;;;;;;;;4956703;28;20055;-68
2022/01/24 06:28:29;;;;;;;26.45;8.70;;;;;;;;;;4955491;29;20027;-68
2022/01/24 06:30:54;;;;;;;32.80;8.68;;;;;;;;;;4956273;29;20058;-68
2022/01/24 06:33:19;;;;;;;24.75;7.78;;;;;;;;;;4952979;28;20032;-68
2022/01/24 06:35:44;;;;;;;29.65;8.55;;;;;;;;;;4959207;28;20031;-68
2022/01/24 06:38:09;;;;;;;25.00;8.07;;;;;;;;;;4958808;28;20043;-68
2022/01/24 06:40:35;;;;;;;31.33;9.95;;;;;;;;;;4955841;28;20587;-66
2022/01/24 06:43:00;;;;;;;27.83;11.98;;;;;;;;;;4954577;28;20480;-66
2022/01/24 06:45:26;;;;;;;22.55;8.85;;;;;;;;;;4955416;28;20023;-67
2022/01/24 06:47:51;;;;;;;27.73;8.50;;;;;;;;;;4955153;29;20475;-67
2022/01/24 06:50:16;;;;;;;25.75;8.75;;;;;;;;;;4949715;28;20023;-68
2022/01/24 06:52:41;;;;;;;23.75;7.72;;;;;;;;;;4954186;28;20030;-67
2022/01/24 06:55:07;;;;;;;25.88;9.15;;;;;;;;;;4951706;28;20038;-67
2022/01/24 06:57:32;;;;;;;24.80;8.88;;;;;;;;;;4954441;28;20081;-68
2022/01/24 06:59:57;;;;;;;22.83;8.82;;;;;;;;;;4975010;28;20031;-69
2022/01/24 07:02:23;;;;;;;23.30;7.78;;;;;;;;;;4954591;29;20019;-67
2022/01/24 07:04:48;;;;;;;33.17;9.15;;;;;;;;;;4970227;28;20357;-68
2022/01/24 07:07:13;;;;;;;29.63;9.15;;;;;;;;;;4955109;28;20023;-67
2022/01/24 07:09:39;;;;;;;26.45;8.70;;;;;;;;;;4970461;28;20058;-68
2022/01/24 07:12:04;;;;;;;29.38;9.90;;;;;;;;;;4965627;28;20094;-68
2022/01/24 07:14:29;;;;;;;24.80;9.55;;;;;;;;;;4955250;29;20031;-67
2022/01/24 07:19:20;;;;;;;28.35;9.13;;;;;;;;;;4955532;28;20039;-65
2022/01/24 07:21:45;;;;;;;30.30;9.27;;;;;;;;;;4951639;28;20027;-67
2022/01/24 07:24:11;;;;;;;25.73;8.45;;;;;;;;;;4954618;29;20048;-68
2022/01/24 07:26:36;;;;;;;21.13;8.90;;;;;;;;;;4954306;29;20046;-68
2022/01/24 07:29:01;;;;;;;20.52;8.77;;;;;;;;;;4953610;28;20034;-68
2022/01/24 07:31:26;;;;;;;21.73;9.38;;;;;;;;;;4953519;28;20035;-67
2022/01/24 07:33:51;;;;;;;18.63;8.48;;;;;;;;;;4950665;28;20047;-67
2022/01/24 07:36:17;;;;;;;20.65;8.25;;;;;;;;;;4935673;29;20032;-67
2022/01/24 07:38:42;;;;;;;17.30;8.43;;;;;;;;;;4950492;28;20034;-68
2022/01/24 07:41:07;;;;;;;17.60;8.75;;;;;;;;;;4935900;29;20401;-66
2022/01/24 07:43:33;;;;;;;17.40;8.07;;;;;;;;;;4941921;28;20047;-68
2022/01/24 07:45:58;;;;;;;17.42;7.97;;;;;;;;;;4954780;29;20496;-67
2022/01/24 07:48:23;;;;;;;16.83;8.10;;;;;;;;;;4954836;28;20129;-68
2022/01/24 07:50:51;;;;;;;15.93;7.82;;;;;;;;;;4953724;28;20425;-67
2022/01/24 07:53:16;;;;;;;15.68;7.38;;;;;;;;;;4954412;28;20175;-68
2022/01/24 07:55:42;;;;;;;14.75;7.68;;;;;;;;;;4952939;28;20515;-68
2022/01/24 07:58:07;;;;;;;17.20;8.40;;;;;;;;;;4954007;28;20046;-65
2022/01/24 08:00:33;;;;;;;18.05;7.90;;;;;;;;;;4966173;28;20018;-67
2022/01/24 08:02:58;;;;;;;15.48;7.63;;;;;;;;;;4973840;28;20023;-67
2022/01/24 08:05:24;;;;;;;20.42;9.07;;;;;;;;;;4959082;28;20028;-67
2022/01/24 08:07:49;;;;;;;18.35;8.65;;;;;;;;;;4953711;29;20022;-68
2022/01/24 08:10:15;;;;;;;18.48;9.00;;;;;;;;;;4953828;28;20023;-68
2022/01/24 08:12:42;;;;;;;18.08;7.95;;;;;;;;;;4962588;28;20435;-67
2022/01/24 08:15:11;;;;;;;15.48;8.13;;;;;;;;;;4962959;28;20063;-67
2022/01/24 08:17:36;;;;;;;13.80;7.50;;;;;;;;;;4954148;28;20033;-68
2022/01/24 08:20:02;;;;;;;15.23;8.15;;;;;;;;;;4949782;28;20027;-67
2022/01/24 08:22:27;;;;;;;14.23;8.23;;;;;;;;;;4955414;28;20031;-68
2022/01/24 08:24:52;;;;;;;15.40;8.10;;;;;;;;;;4953285;28;20047;-68
2022/01/24 08:27:18;;;;;;;14.10;7.00;;;;;;;;;;4953928;29;20523;-66
2022/01/24 08:29:45;;;;;;;13.13;7.68;;;;;;;;;;4953968;29;20070;-68
2022/01/24 08:32:10;;;;;;;13.60;6.55;;;;;;;;;;4951617;28;20049;-68
2022/01/24 08:34:36;;;;;;;15.55;7.35;;;;;;;;;;4953543;28;20497;-68
2022/01/24 08:37:01;;;;;;;12.25;6.70;;;;;;;;;;4953025;29;20024;-68
2022/01/24 08:39:26;;;;;;;17.38;9.25;;;;;;;;;;4953574;28;20027;-69
2022/01/24 08:44:32;;;;;;;14.65;7.68;;;;;;;;;;4953099;28;20443;-68
2022/01/24 08:46:58;;;;;;;14.52;7.35;;;;;;;;;;4938306;29;20031;-66
2022/01/24 08:49:23;;;;;;;10.98;6.50;;;;;;;;;;4952014;28;20038;-69
2022/01/24 08:51:48;;;;;;;10.80;6.47;;;;;;;;;;4963179;28;20018;-68
2022/01/24 08:54:14;;;;;;;11.23;6.45;;;;;;;;;;4963292;28;20551;-68
2022/01/24 08:56:39;;;;;;;11.55;6.43;;;;;;;;;;4953220;29;20311;-68
2022/01/24 08:59:05;;;;;;;11.48;5.78;;;;;;;;;;4953232;29;20027;-68
2022/01/24 09:01:30;;;;;;;9.93;5.45;;;;;;;;;;4936054;29;20058;-66
2022/01/24 09:03:56;;;;;;;8.13;4.85;;;;;;;;;;4952279;28;20032;-68
2022/01/24 09:06:22;;;;;;;6.57;4.57;;;;;;;;;;4953107;28;20023;-68
2022/01/24 09:08:55;;;;;;;7.55;4.00;;;;;;;;;;4952148;29;20012;-67
2022/01/24 09:11:21;;;;;;;8.27;4.15;;;;;;;;;;4953215;28;20576;-66
2022/01/24 09:13:46;;;;;;;6.97;4.35;;;;;;;;;;4950290;28;20032;-67
2022/01/24 09:16:11;;;;;;;8.63;4.53;;;;;;;;;;4955898;28;20058;-67
2022/01/24 09:18:36;;;;;;;6.97;4.20;;;;;;;;;;4957157;28;20070;-67
2022/01/24 09:21:01;;;;;;;7.57;4.55;;;;;;;;;;4949950;28;20024;-67
2022/01/24 09:23:27;;;;;;;7.25;4.35;;;;;;;;;;4950882;28;20023;-66
2022/01/24 09:25:52;;;;;;;6.18;4.28;;;;;;;;;;4952440;28;20059;-67
2022/01/24 09:28:18;;;;;;;7.63;3.97;;;;;;;;;;4952618;28;20543;-67
2022/01/24 09:30:43;;;;;;;6.97;4.00;;;;;;;;;;4953308;29;20063;-67
2022/01/24 09:33:11;;;;;;;6.38;3.60;;;;;;;;;;4952746;28;20038;-67
2022/01/24 09:35:37;;;;;;;8.50;4.72;;;;;;;;;;4952780;28;20038;-67
2022/01/24 09:38:02;;;;;;;9.50;4.93;;;;;;;;;;4951780;28;20496;-66
2022/01/24 09:40:28;;;;;;;10.85;6.35;;;;;;;;;;4953090;28;20034;-68
2022/01/24 09:42:53;;;;;;;7.47;4.70;;;;;;;;;;4952259;28;20027;-68
2022/01/24 09:45:18;;;;;;;8.82;4.75;;;;;;;;;;4952125;29;20035;-68
2022/01/24 09:47:44;;;;;;;7.35;4.22;;;;;;;;;;4954558;28;20124;-68
2022/01/24 09:50:10;;;;;;;6.93;4.25;;;;;;;;;;4955085;28;20035;-68
2022/01/24 09:52:38;;;;;;;6.45;4.32;;;;;;;;;;4955491;28;20117;-68
2022/01/24 09:55:04;;;;;;;7.85;4.15;;;;;;;;;;4956947;28;20495;-68
2022/01/24 09:57:29;;;;;;;8.25;4.35;;;;;;;;;;4955375;29;20024;-68
2022/01/24 09:59:56;;;;;;;6.57;3.95;;;;;;;;;;4955942;29;20476;-68
2022/01/24 10:02:23;;;;;;;4.78;3.45;;;;;;;;;;4953501;29;20023;-68
2022/01/24 10:04:48;;;;;;;4.95;3.15;;;;;;;;;;4949697;28;20058;-68
2022/01/24 10:07:17;;;;;;;7.65;3.55;;;;;;;;;;4954370;29;20481;-69
2022/01/24 10:09:44;;;;;;;3.45;2.03;;;;;;;;;;4956347;29;20039;-67
2022/01/24 10:12:17;;;;;;;3.42;2.05;;;;;;;;;;4955588;29;20051;-67
2022/01/24 10:17:31;;;;;;;2.97;1.90;;;;;;;;;;4955994;28;20038;-67
2022/01/24 10:19:56;;;;;;;3.90;2.60;;;;;;;;;;4954451;28;20031;-67
2022/01/24 10:22:23;;;;;;;3.47;2.38;;;;;;;;;;4956528;28;20027;-68
2022/01/24 10:24:51;;;;;;;3.10;2.50;;;;;;;;;;4955522;28;20055;-67
2022/01/24 10:27:23;;;;;;;3.90;2.42;;;;;;;;;;4954562;28;20030;-68
2022/01/24 10:29:56;;;;;;;4.63;2.20;;;;;;;;;;4958294;28;20047;-67
2022/01/24 10:32:28;;;;;;;3.15;1.73;;;;;;;;;;4953291;28;20031;-68
2022/01/24 10:34:53;;;;;;;5.25;2.50;;;;;;;;;;4955294;28;20038;-68
2022/01/24 10:37:23;;;;;;;4.32;2.30;;;;;;;;;;4954192;28;20027;-67
2022/01/24 10:39:58;;;;;;;3.25;2.38;;;;;;;;;;4970153;28;20043;-66
2022/01/24 10:45:17;;;;;;;2.08;1.20;;;;;;;;;;4955881;29;20401;-67
2022/01/24 10:47:44;;;;;;;1.95;1.10;;;;;;;;;;4953857;28;20026;-68
2022/01/24 10:50:10;;;;;;;1.45;1.02;;;;;;;;;;4951794;28;20078;-68
2022/01/24 10:52:35;;;;;;;0.60;0.50;;;;;;;;;;4952761;28;20035;-69
2022/01/24 10:55:12;;;;;;;1.38;0.70;;;;;;;;;;4954919;28;20023;-68
2022/01/24 10:57:39;;;;;;;0.95;0.60;;;;;;;;;;4954958;28;20077;-68
2022/01/24 11:00:10;;;;;;;1.02;0.60;;;;;;;;;;4955306;28;20031;-67
2022/01/24 11:02:36;;;;;;;2.35;0.60;;;;;;;;;;4954855;29;20030;-68
2022/01/24 11:05:15;;;;;;;1.17;0.50;;;;;;;;;;4955702;28;20023;-67
2022/01/24 11:07:47;;;;;;;1.42;0.30;;;;;;;;;;4944981;29;20022;-67
2022/01/24 11:10:12;;;;;;;0.50;0.30;;;;;;;;;;4953790;28;20489;-68
2022/01/24 11:12:39;;;;;;;0.82;0.35;;;;;;;;;;4954323;28;20107;-69
2022/01/24 11:15:04;;;;;;;0.70;0.40;;;;;;;;;;4954168;28;20019;-69
2022/01/24 11:17:30;;;;;;;1.17;0.43;;;;;;;;;;4953651;28;20026;-68
2022/01/24 11:20:01;;;;;;;1.63;0.30;;;;;;;;;;4949731;28;20369;-69
2022/01/24 11:22:28;;;;;;;2.25;0.60;;;;;;;;;;4955834;28;20027;-69
2022/01/24 11:24:58;;;;;;;0.75;0.40;;;;;;;;;;4954734;28;20047;-69
2022/01/24 11:27:24;;;;;;;0.55;0.38;;;;;;;;;;4954712;28;20019;-69
2022/01/24 11:29:53;;;;;;;2.25;1.00;;;;;;;;;;4953372;28;20038;-69
2022/01/24 11:32:24;;;;;;;2.22;0.82;;;;;;;;;;4954951;28;20027;-69
2022/01/24 11:34:51;;;;;;;1.20;0.60;;;;;;;;;;4954963;29;20549;-69
2022/01/24 11:37:36;;;;;;;1.27;0.50;;;;;;;;;;4954021;29;20055;-69
2022/01/24 11:40:10;;;;;;;1.50;0.60;;;;;;;;;;4953105;28;20042;-67
2022/01/24 11:42:36;;;;;;;1.35;0.68;;;;;;;;;;4954412;28;20063;-67
2022/01/24 11:45:10;;;;;;;1.02;0.70;;;;;;;;;;4954880;29;20028;-68
2022/01/24 11:47:35;;;;;;;0.93;0.50;;;;;;;;;;4955086;29;20019;-67
2022/01/24 11:50:20;;;;;;;0.95;0.60;;;;;;;;;;4952449;28;20038;-68
2022/01/24 11:52:45;;;;;;;0.77;0.40;;;;;;;;;;4956281;28;20058;-69
2022/01/24 11:57:45;;;;;;;1.55;0.20;;;;;;;;;;4954136;28;20038;-68
2022/01/24 12:00:10;;;;;;;0.70;0.30;;;;;;;;;;4953520;29;20026;-68
2022/01/24 12:02:52;;;;;;;0.60;0.28;;;;;;;;;;4954181;28;20019;-68
2022/01/24 12:05:23;;;;;;;0.50;0.20;;;;;;;;;;4954630;28;20026;-68
2022/01/24 12:07:48;;;;;;;0.50;0.20;;;;;;;;;;4953447;28;20019;-69
2022/01/24 12:10:23;;;;;;;0.65;0.30;;;;;;;;;;4953925;29;20030;-68
2022/01/24 12:12:50;;;;;;;0.95;0.20;;;;;;;;;;4954077;28;20114;-68
2022/01/24 12:15:34;;;;;;;0.28;0.20;;;;;;;;;;4953985;28;20074;-68
2022/01/24 12:18:01;;;;;;;0.38;0.20;;;;;;;;;;4934642;29;20032;-69
2022/01/24 12:20:30;;;;;;;0.35;0.20;;;;;;;;;;4956541;28;20023;-69
2022/01/24 12:22:55;;;;;;;0.15;0.10;;;;;;;;;;4959571;28;20071;-68
2022/01/24 12:25:40;;;;;;;0.10;0.10;;;;;;;;;;4953851;28;20452;-67
2022/01/24 12:28:16;;;;;;;0.20;0.10;;;;;;;;;;4952669;29;20043;-67
2022/01/24 12:31:00;;;;;;;0.73;0.20;;;;;;;;;;4953275;29;20118;-68
2022/01/24 12:33:32;;;;;;;0.30;0.20;;;;;;;;;;4949257;28;20027;-69
2022/01/24 12:35:57;;;;;;;0.40;0.20;;;;;;;;;;4952471;29;20046;-69
2022/01/24 12:38:22;;;;;;;0.43;0.20;;;;;;;;;;4952768;28;20031;-68
2022/01/24 12:40:48;;;;;;;1.45;0.03;;;;;;;;;;4953125;29;20031;-68
2022/01/24 12:43:28;;;;;;;0.32;0.10;;;;;;;;;;4951687;28;20035;-69
2022/01/24 12:48:37;;;;;;;0.20;0.00;;;;;;;;;;4953527;29;20499;-69
2022/01/24 12:51:04;;;;;;;0.20;0.10;;;;;;;;;;4946624;28;20035;-69
2022/01/24 12:53:36;;;;;;;0.00;0.00;;;;;;;;;;4947001;29;20020;-69
2022/01/24 12:56:02;;;;;;;0.20;0.10;;;;;;;;;;4952860;28;20480;-68
2022/01/24 12:58:41;;;;;;;0.10;0.00;;;;;;;;;;4952737;28;20384;-68
2022/01/24 13:01:20;;;;;;;0.25;0.10;;;;;;;;;;4952588;29;20106;-68
2022/01/24 13:03:46;;;;;;;0.20;0.10;;;;;;;;;;4951502;28;20061;-69
2022/01/24 13:06:13;;;;;;;0.10;0.00;;;;;;;;;;4952317;28;20019;-68
2022/01/24 13:08:38;;;;;;;0.10;0.00;;;;;;;;;;4967169;28;20559;-70
2022/01/24 13:11:08;;;;;;;0.65;0.00;;;;;;;;;;4953571;29;20110;-69
2022/01/24 13:13:37;;;;;;;0.20;0.00;;;;;;;;;;4969301;28;20023;-68
2022/01/24 13:21:58;;;;;;;0.30;0.10;;;;;;;;;;4949185;28;20111;-68
2022/01/24 13:24:23;;;;;;;0.30;0.10;;;;;;;;;;4953021;28;20035;-69
2022/01/24 13:26:49;;;;;;;0.35;0.10;;;;;;;;;;4962079;28;20442;-67
2022/01/24 13:29:14;;;;;;;0.20;0.10;;;;;;;;;;4954017;28;20046;-69
2022/01/24 13:31:39;;;;;;;0.10;0.10;;;;;;;;;;4934336;28;20027;-67
2022/01/24 13:34:08;;;;;;;0.20;0.10;;;;;;;;;;4956911;28;20394;-69
2022/01/24 13:36:34;;;;;;;0.45;0.10;;;;;;;;;;4956867;28;20034;-68
2022/01/24 13:38:59;;;;;;;1.00;0.10;;;;;;;;;;4941540;29;20027;-69
2022/01/24 13:41:24;;;;;;;0.10;0.08;;;;;;;;;;4955661;29;20023;-68
2022/01/24 13:43:53;;;;;;;2.25;0.10;;;;;;;;;;4955617;28;20031;-68
2022/01/24 13:46:23;;;;;;;0.38;0.20;;;;;;;;;;4970152;28;20456;-67
2022/01/24 13:48:57;;;;;;;0.15;0.10;;;;;;;;;;4943894;28;20023;-68
2022/01/24 13:51:26;;;;;;;0.10;0.00;;;;;;;;;;4951134;28;20102;-68
2022/01/24 13:53:51;;;;;;;0.32;0.10;;;;;;;;;;4963989;28;20035;-67
2022/01/24 13:56:17;;;;;;;0.40;0.10;;;;;;;;;;4962531;28;20019;-68
2022/01/24 13:58:56;;;;;;;0.10;0.10;;;;;;;;;;4954540;29;20053;-66
2022/01/24 14:01:21;;;;;;;0.85;0.10;;;;;;;;;;4957115;28;20059;-67
2022/01/24 14:03:59;;;;;;;1.00;0.20;;;;;;;;;;4952394;28;20020;-69
2022/01/24 14:06:24;;;;;;;0.30;0.20;;;;;;;;;;4957173;28;20106;-67
2022/01/24 14:09:01;;;;;;;0.20;0.20;;;;;;;;;;4954765;28;20520;-69
2022/01/24 14:11:29;;;;;;;0.30;0.25;;;;;;;;;;4956409;28;20023;-68
2022/01/24 14:14:06;;;;;;;0.63;0.30;;;;;;;;;;4940776;28;20440;-68
2022/01/24 14:16:51;;;;;;;0.40;0.20;;;;;;;;;;4953401;29;20031;-67
2022/01/24 14:19:16;;;;;;;0.20;0.20;;;;;;;;;;4954390;29;20019;-67
2022/01/24 14:22:00;;;;;;;0.63;0.20;;;;;;;;;;4944775;28;20035;-68
2022/01/24 14:24:40;;;;;;;1.55;0.30;;;;;;;;;;4952223;28;20548;-68
2022/01/24 14:27:05;;;;;;;1.17;0.22;;;;;;;;;;4951764;28;20047;-68
2022/01/24 14:29:34;;;;;;;0.43;0.20;;;;;;;;;;4955198;28;20082;-67
2022/01/24 14:31:59;;;;;;;0.65;0.40;;;;;;;;;;4954487;29;20035;-66
2022/01/24 14:34:28;;;;;;;0.17;0.10;;;;;;;;;;4956040;28;20126;-69
2022/01/24 14:36:55;;;;;;;1.95;0.15;;;;;;;;;;4954171;28;20105;-68
2022/01/24 14:39:21;;;;;;;0.32;0.20;;;;;;;;;;4955110;28;20027;-69
2022/01/24 14:41:48;;;;;;;1.25;0.88;;;;;;;;;;4955823;29;20016;-68
2022/01/24 14:46:59;;;;;;;1.20;1.10;;;;;;;;;;4955440;28;20082;-67
2022/01/24 14:49:26;;;;;;;1.10;1.00;;;;;;;;;;4952495;28;20031;-68
2022/01/24 14:52:03;;;;;;;1.27;1.17;;;;;;;;;;4952470;28;20058;-69
2022/01/24 14:54:30;;;;;;;1.08;0.73;;;;;;;;;;4953998;28;20237;-68
2022/01/24 14:56:58;;;;;;;2.30;1.80;;;;;;;;;;4937727;28;20027;-68
2022/01/24 14:59:23;;;;;;;1.45;1.40;;;;;;;;;;4964739;28;20121;-69
2022/01/24 15:01:49;;;;;;;0.60;0.32;;;;;;;;;;4964951;28;20531;-69
2022/01/24 15:04:14;;;;;;;0.73;0.20;;;;;;;;;;4954872;28;20030;-69
2022/01/24 15:06:39;;;;;;;0.75;0.20;;;;;;;;;;4954188;29;20930;-69
2022/01/24 15:09:25;;;;;;;0.10;0.10;;;;;;;;;;4960990;28;20031;-70
2022/01/24 15:11:51;;;;;;;0.30;0.10;;;;;;;;;;4954609;29;20455;-68
2022/01/24 15:14:34;;;;;;;2.90;0.28;;;;;;;;;;4954827;29;20038;-69
2022/01/24 15:27:21;;;;;;;0.50;0.50;;;;;;;;;;4955120;28;20023;-69
2022/01/24 15:29:46;;;;;;;0.55;0.20;;;;;;;;;;4935577;28;20165;-69
2022/01/24 15:32:11;;;;;;;1.10;0.20;;;;;;;;;;4953481;28;20065;-69
2022/01/24 15:34:37;;;;;;;0.40;0.30;;;;;;;;;;4954368;28;20502;-69
2022/01/24 15:37:03;;;;;;;2.17;0.40;;;;;;;;;;4952233;28;20023;-69
2022/01/24 15:39:29;;;;;;;0.68;0.45;;;;;;;;;;4953640;28;20024;-69
2022/01/24 15:42:08;;;;;;;0.60;0.40;;;;;;;;;;4953319;28;20118;-69
2022/01/24 15:44:48;;;;;;;0.63;0.60;;;;;;;;;;4954067;28;20008;-68
2022/01/24 15:49:39;;;;;;;0.70;0.65;;;;;;;;;;4948647;28;20518;-67
2022/01/24 15:52:06;;;;;;;1.33;1.10;;;;;;;;;;4948992;28;20026;-68
2022/01/24 15:54:32;;;;;;;1.00;0.95;;;;;;;;;;4953530;29;20029;-69
2022/01/24 15:59:41;;;;;;;1.00;0.90;;;;;;;;;;4952991;29;20037;-69
2022/01/24 16:02:06;;;;;;;2.15;1.38;;;;;;;;;;4953600;28;20110;-69
2022/01/24 16:04:32;;;;;;;1.67;1.15;;;;;;;;;;4954007;28;20046;-69
2022/01/24 16:06:57;;;;;;;1.13;1.02;;;;;;;;;;4949701;28;20093;-69
2022/01/24 16:09:22;;;;;;;0.98;0.98;;;;;;;;;;4953802;28;20026;-69
2022/01/24 16:11:48;;;;;;;0.95;0.95;;;;;;;;;;4952818;28;20043;-66
2022/01/24 16:14:14;;;;;;;0.90;0.90;;;;;;;;;;4966303;28;20027;-68
2022/01/24 16:16:39;;;;;;;1.70;1.60;;;;;;;;;;4955102;28;20058;-68
2022/01/24 16:19:05;;;;;;;2.05;1.35;;;;;;;;;;4952832;28;20392;-68
2022/01/24 16:21:43;;;;;;;1.55;1.45;;;;;;;;;;4950557;28;20166;-67
2022/01/24 16:26:44;;;;;;;2.50;1.83;;;;;;;;;;4949619;28;20027;-67
2022/01/24 16:29:10;;;;;;;1.60;1.50;;;;;;;;;;4950679;28;20050;-66
2022/01/24 16:31:35;;;;;;;2.22;1.75;;;;;;;;;;4947594;28;20456;-66
2022/01/24 16:34:05;;;;;;;1.70;1.60;;;;;;;;;;4949920;28;20201;-67
2022/01/24 16:36:30;;;;;;;2.70;2.08;;;;;;;;;;4942808;28;20086;-67
2022/01/24 16:38:55;;;;;;;2.05;1.80;;;;;;;;;;4942366;28;20051;-67
2022/01/24 16:41:32;;;;;;;2.20;1.83;;;;;;;;;;4947933;28;20024;-68
2022/01/24 16:47:33;;;;;;;2.90;2.70;;;;;;;;;;4926861;29;20051;-66
2022/01/24 16:49:36;;;;;;;2.70;2.50;;;;;;;;;;4943268;28;20043;-68
2022/01/24 16:52:01;;;;;;;3.08;2.85;;;;;;;;;;4957341;28;20019;-68
2022/01/24 16:54:29;;;;;;;3.00;2.80;;;;;;;;;;4956706;28;20027;-67
2022/01/24 16:56:54;;;;;;;3.45;2.78;;;;;;;;;;4947637;28;20130;-67